SCVD/ZAL METAR and TAF weather

Enter ICAO airport designator
Station Type Date Time Source
SCVD METAR 2020/07/12 00:00 UTC NOAA

SCVD 120000Z AUTO VRB02KT 8000 RA BKN020 OVC039 08/08 Q1018


Station Type Date Time Source
SCVD Decoded METAR 2020/07/12 00:00 UTC NOAA

Valdivia, Chile (SCVD) 39-37S 073-05W
Jul 11, 2020 - 08:00 PM EDT / 2020.07.12 0000 UTC
Wind: Variable at 2 MPH (2 KT):0
Visibility: 4 mile(s):0
Sky conditions: overcast
Weather: rain
Temperature: 46 F (8 C)
Dew Point: 46 F (8 C)
Relative Humidity: 100%
Pressure (altimeter): 30.06 in. Hg (1018 hPa)
ob: SCVD 120000Z AUTO VRB02KT 8000 RA BKN020 OVC039 08/08 Q1018
cycle: 0

Station Type Date Time Source
SCVD TAF 2020/07/11 12:00 UTC NOAA

TAF SCVD 111108Z 1112/1124 29008KT 8000 -RA OVC020 TN09/1112Z TX11/1118Z
BECMG 1112/1114 9999 NSW BKN025
TEMPO 1117/1121 VRB03KT 5000 -RA OVC020

Example: see airport list